Time;durP1;ratioP1;P1;durP2;ratioP2;P2;SDS_P1;SDS_P2;PMS_P1;PMS_P2;Temp;Humidity;BMP_temperature;BMP_pressure;BME280_temperature;BME280_humidity;BME280_pressure;Samples;Min_cycle;Max_cycle;Signal;HPM_P1;HPM_P2
2023/04/19 00:00:24;;;;;;;;;9.75;8.00;;;;;;;;5016892;28;45352;-79
2023/04/19 00:02:49;;;;;;;;;12.00;8.00;;;;;;;;5017296;28;45352;-79
2023/04/19 00:05:14;;;;;;;;;12.75;7.00;;;;;;;;5016708;28;45472;-79
2023/04/19 00:07:40;;;;;;;;;9.00;6.00;;;;;;;;5016641;28;47144;-79
2023/04/19 00:10:05;;;;;;;;;10.25;8.00;;;;;;;;5016745;28;45392;-79
2023/04/19 00:12:31;;;;;;;;;14.25;9.00;;;;;;;;5016752;28;45321;-79
2023/04/19 00:14:56;;;;;;;;;8.00;6.00;;;;;;;;5016714;28;45441;-78
2023/04/19 00:17:21;;;;;;;;;9.00;6.67;;;;;;;;5016698;28;47239;-78
2023/04/19 00:19:46;;;;;;;;;7.50;7.00;;;;;;;;5016437;28;45285;-79
2023/04/19 00:22:12;;;;;;;;;8.00;7.67;;;;;;;;5016887;28;45360;-79
2023/04/19 00:24:37;;;;;;;;;12.67;8.33;;;;;;;;5016637;28;45576;-79
2023/04/19 00:27:02;;;;;;;;;10.67;7.33;;;;;;;;5016389;28;47457;-78
2023/04/19 00:29:27;;;;;;;;;12.50;7.00;;;;;;;;5016538;28;45307;-79
2023/04/19 00:31:53;;;;;;;;;9.33;4.67;;;;;;;;5016577;28;45352;-79
2023/04/19 00:34:18;;;;;;;;;8.33;8.33;;;;;;;;5014405;28;45242;-79
2023/04/19 00:36:43;;;;;;;;;14.00;8.00;;;;;;;;5015687;28;46459;-79
2023/04/19 00:39:08;;;;;;;;;8.00;6.33;;;;;;;;5016648;28;45236;-79
2023/04/19 00:41:33;;;;;;;;;11.67;7.33;;;;;;;;5015104;28;45426;-79
2023/04/19 00:43:59;;;;;;;;;6.33;6.33;;;;;;;;5016569;28;45208;-79
2023/04/19 00:46:24;;;;;;;;;6.50;4.00;;;;;;;;5015916;28;45658;-79
2023/04/19 00:48:50;;;;;;;;;10.00;8.00;;;;;;;;5015960;28;45391;-79
2023/04/19 00:51:15;;;;;;;;;8.75;7.75;;;;;;;;5016349;28;45465;-78
2023/04/19 00:53:42;;;;;;;;;10.00;7.67;;;;;;;;5016060;28;45451;-79
2023/04/19 00:56:08;;;;;;;;;10.00;6.25;;;;;;;;5016169;28;46469;-78
2023/04/19 00:58:33;;;;;;;;;7.75;6.25;;;;;;;;5016012;28;45713;-78
2023/04/19 01:00:59;;;;;;;;;9.00;6.25;;;;;;;;5016095;28;45733;-79
2023/04/19 01:03:26;;;;;;;;;8.50;5.50;;;;;;;;5015791;28;45509;-79
2023/04/19 01:05:51;;;;;;;;;8.25;6.25;;;;;;;;5014695;28;48010;-79
2023/04/19 01:08:16;;;;;;;;;4.00;4.00;;;;;;;;5015712;28;45368;-78
2023/04/19 01:10:41;;;;;;;;;8.00;7.00;;;;;;;;5015919;28;45387;-79
2023/04/19 01:13:07;;;;;;;;;7.00;4.00;;;;;;;;5015695;28;45581;-79
2023/04/19 01:15:32;;;;;;;;;8.33;6.00;;;;;;;;5015725;28;45359;-79
2023/04/19 01:17:57;;;;;;;;;9.67;4.67;;;;;;;;5013730;28;46115;-79
2023/04/19 01:20:22;;;;;;;;;3.33;2.67;;;;;;;;5015851;28;45355;-78
2023/04/19 01:22:47;;;;;;;;;10.25;6.50;;;;;;;;5016006;28;45418;-79
2023/04/19 01:25:13;;;;;;;;;7.00;6.00;;;;;;;;5015662;28;47232;-78
2023/04/19 01:27:38;;;;;;;;;7.00;4.00;;;;;;;;5015600;28;45301;-79
2023/04/19 01:30:03;;;;;;;;;7.00;6.00;;;;;;;;5015828;28;45280;-79
2023/04/19 01:32:28;;;;;;;;;7.50;5.00;;;;;;;;5015154;28;45463;-77
2023/04/19 01:34:54;;;;;;;;;7.67;7.00;;;;;;;;5015498;28;46161;-78
2023/04/19 01:37:19;;;;;;;;;9.75;7.75;;;;;;;;5014075;28;45476;-78
2023/04/19 01:39:44;;;;;;;;;9.50;7.50;;;;;;;;5015723;28;45472;-78
2023/04/19 01:42:09;;;;;;;;;8.33;6.00;;;;;;;;5015458;28;45534;-78
2023/04/19 01:44:35;;;;;;;;;8.67;4.33;;;;;;;;5015042;28;46309;-78
2023/04/19 01:47:00;;;;;;;;;6.67;4.33;;;;;;;;5014731;28;45497;-78
2023/04/19 01:49:25;;;;;;;;;8.00;4.33;;;;;;;;5015198;28;45369;-78
2023/04/19 01:51:50;;;;;;;;;5.00;3.00;;;;;;;;5013977;28;45443;-78
2023/04/19 01:54:15;;;;;;;;;5.33;5.33;;;;;;;;5015206;28;45351;-78
2023/04/19 01:56:41;;;;;;;;;7.00;5.00;;;;;;;;5015321;28;45227;-78
2023/04/19 01:59:06;;;;;;;;;6.00;5.67;;;;;;;;5015468;28;45300;-78
2023/04/19 02:01:31;;;;;;;;;12.67;6.67;;;;;;;;5014733;28;45449;-78
2023/04/19 02:03:56;;;;;;;;;7.00;5.00;;;;;;;;5013778;28;47308;-78
2023/04/19 02:06:22;;;;;;;;;7.00;7.00;;;;;;;;5015225;28;45289;-78
2023/04/19 02:08:47;;;;;;;;;7.67;6.00;;;;;;;;5015155;28;45322;-78
2023/04/19 02:11:15;;;;;;;;;10.33;7.33;;;;;;;;5015320;28;45286;-79
2023/04/19 02:13:40;;;;;;;;;7.50;5.75;;;;;;;;5014796;28;46334;-79
2023/04/19 02:16:06;;;;;;;;;8.33;3.33;;;;;;;;5014710;28;45301;-78
2023/04/19 02:18:31;;;;;;;;;8.00;3.25;;;;;;;;5014993;28;45289;-78
2023/04/19 02:21:00;;;;;;;;;6.50;6.00;;;;;;;;5015005;28;45619;-78
2023/04/19 02:23:25;;;;;;;;;8.00;6.00;;;;;;;;5014784;28;46619;-78
2023/04/19 02:25:50;;;;;;;;;8.00;6.33;;;;;;;;5015081;28;45339;-78
2023/04/19 02:28:16;;;;;;;;;7.67;5.67;;;;;;;;5014772;28;45454;-77
2023/04/19 02:30:41;;;;;;;;;6.33;5.33;;;;;;;;5014619;28;45512;-78
2023/04/19 02:33:06;;;;;;;;;6.33;6.00;;;;;;;;5014890;28;46368;-78
2023/04/19 02:35:31;;;;;;;;;8.00;4.67;;;;;;;;5014497;28;45368;-79
2023/04/19 02:37:57;;;;;;;;;6.00;4.25;;;;;;;;5014987;28;45349;-78
2023/04/19 02:40:22;;;;;;;;;7.25;4.25;;;;;;;;5014814;28;45438;-78
2023/04/19 02:42:47;;;;;;;;;7.25;6.00;;;;;;;;5013098;28;47366;-79
2023/04/19 02:45:13;;;;;;;;;7.00;4.25;;;;;;;;5012872;28;45409;-79
2023/04/19 02:47:38;;;;;;;;;9.00;5.33;;;;;;;;5014617;28;45371;-78
2023/04/19 02:50:03;;;;;;;;;7.67;6.00;;;;;;;;5014118;28;45420;-79
2023/04/19 02:52:29;;;;;;;;;10.75;7.00;;;;;;;;5014689;28;45514;-79
2023/04/19 02:54:54;;;;;;;;;8.67;6.00;;;;;;;;5014430;28;45344;-78
2023/04/19 02:57:19;;;;;;;;;9.67;4.33;;;;;;;;5014479;28;45380;-79
2023/04/19 02:59:44;;;;;;;;;6.67;6.00;;;;;;;;5016850;28;45367;-79
2023/04/19 03:02:09;;;;;;;;;4.67;4.67;;;;;;;;5017921;28;47210;-78
2023/04/19 03:04:35;;;;;;;;;9.67;3.00;;;;;;;;5017792;28;45444;-79
2023/04/19 03:07:00;;;;;;;;;7.00;6.00;;;;;;;;5018010;28;45494;-78
2023/04/19 03:09:25;;;;;;;;;7.00;6.25;;;;;;;;5017705;28;45775;-79
2023/04/19 03:11:51;;;;;;;;;13.00;7.67;;;;;;;;5017483;28;47123;-79
2023/04/19 03:14:16;;;;;;;;;6.00;6.00;;;;;;;;5017437;28;45339;-78
2023/04/19 03:16:41;;;;;;;;;8.67;6.00;;;;;;;;5017759;28;45321;-78
2023/04/19 03:19:06;;;;;;;;;8.33;5.67;;;;;;;;5017319;28;45409;-78
2023/04/19 03:21:31;;;;;;;;;9.33;5.00;;;;;;;;5015886;28;47227;-79
2023/04/19 03:23:56;;;;;;;;;6.33;5.00;;;;;;;;5017694;28;45508;-79
2023/04/19 03:26:22;;;;;;;;;6.67;4.67;;;;;;;;5017740;28;45486;-79
2023/04/19 03:28:47;;;;;;;;;3.67;3.67;;;;;;;;5017293;28;45519;-78
2023/04/19 03:31:12;;;;;;;;;3.50;1.25;;;;;;;;5017362;28;46311;-79
2023/04/19 03:33:38;;;;;;;;;10.50;6.00;;;;;;;;5017055;28;45371;-79
2023/04/19 03:36:03;;;;;;;;;7.00;6.00;;;;;;;;5017478;28;45403;-79
2023/04/19 03:38:28;;;;;;;;;7.25;6.00;;;;;;;;5017207;28;45387;-80
2023/04/19 03:40:54;;;;;;;;;10.67;5.33;;;;;;;;5017009;28;45269;-79
2023/04/19 03:43:21;;;;;;;;;7.25;6.00;;;;;;;;5016776;28;45426;-79
2023/04/19 03:45:46;;;;;;;;;7.00;7.00;;;;;;;;5017207;28;45435;-79
2023/04/19 03:48:11;;;;;;;;;11.33;6.67;;;;;;;;5017353;28;45399;-79
2023/04/19 03:50:36;;;;;;;;;7.33;6.00;;;;;;;;5017195;28;46372;-80
2023/04/19 03:53:02;;;;;;;;;7.00;5.00;;;;;;;;5017083;28;45443;-80
2023/04/19 03:55:27;;;;;;;;;7.00;5.00;;;;;;;;5017123;28;45426;-81
2023/04/19 03:57:53;;;;;;;;;9.00;6.00;;;;;;;;5016701;28;45441;-80
2023/04/19 04:00:18;;;;;;;;;6.00;4.33;;;;;;;;5016737;28;46658;-80
2023/04/19 04:02:43;;;;;;;;;6.75;6.50;;;;;;;;5017052;28;45639;-82
2023/04/19 04:05:08;;;;;;;;;5.33;4.00;;;;;;;;5017216;28;45331;-80
2023/04/19 04:07:34;;;;;;;;;11.67;6.00;;;;;;;;5016631;28;45395;-80
2023/04/19 04:09:59;;;;;;;;;9.33;7.00;;;;;;;;5016779;28;45653;-80
2023/04/19 04:12:24;;;;;;;;;9.75;5.75;;;;;;;;5016060;28;45427;-80
2023/04/19 04:14:49;;;;;;;;;7.67;6.00;;;;;;;;5016901;28;45325;-80
2023/04/19 04:17:14;;;;;;;;;9.00;6.00;;;;;;;;5016994;28;45471;-79
2023/04/19 04:19:40;;;;;;;;;8.00;6.00;;;;;;;;5016451;28;47103;-81
2023/04/19 04:22:05;;;;;;;;;9.00;6.33;;;;;;;;5016690;28;45327;-79
2023/04/19 04:24:37;;;;;;;;;11.25;6.75;;;;;;;;5016876;28;45391;-79
2023/04/19 04:27:02;;;;;;;;;7.00;6.00;;;;;;;;5016314;28;45355;-79
2023/04/19 04:29:27;;;;;;;;;17.00;11.33;;;;;;;;5016217;28;45463;-79
2023/04/19 04:31:53;;;;;;;;;15.75;11.00;;;;;;;;5016613;28;45377;-79
2023/04/19 04:34:19;;;;;;;;;17.00;12.00;;;;;;;;5016582;28;45497;-80
2023/04/19 04:36:44;;;;;;;;;17.25;12.25;;;;;;;;5016718;28;45388;-80
2023/04/19 04:39:10;;;;;;;;;16.00;13.00;;;;;;;;5016584;28;45387;-79
2023/04/19 04:41:36;;;;;;;;;18.50;10.00;;;;;;;;5015997;28;45776;-79
2023/04/19 04:44:03;;;;;;;;;11.50;9.75;;;;;;;;5016635;28;45383;-79
2023/04/19 04:46:28;;;;;;;;;11.50;7.50;;;;;;;;5018833;28;45520;-80
2023/04/19 04:48:54;;;;;;;;;13.00;6.67;;;;;;;;5018283;28;46978;-79
2023/04/19 04:51:19;;;;;;;;;10.75;7.25;;;;;;;;5016142;28;45496;-79
2023/04/19 04:53:46;;;;;;;;;11.00;6.67;;;;;;;;5016496;28;45221;-80
2023/04/19 04:56:11;;;;;;;;;11.25;10.00;;;;;;;;5015911;28;45889;-80
2023/04/19 04:58:36;;;;;;;;;15.33;8.67;;;;;;;;5016325;28;45454;-80
2023/04/19 05:01:01;;;;;;;;;10.00;7.00;;;;;;;;5016320;28;45309;-80
2023/04/19 05:03:26;;;;;;;;;12.33;6.33;;;;;;;;5016093;28;45338;-80
2023/04/19 05:05:52;;;;;;;;;10.50;5.75;;;;;;;;5015924;28;45301;-80
2023/04/19 05:08:17;;;;;;;;;8.00;6.00;;;;;;;;5015946;28;45423;-79
2023/04/19 05:10:42;;;;;;;;;9.67;5.33;;;;;;;;5015999;28;45256;-79
2023/04/19 05:13:07;;;;;;;;;7.67;5.33;;;;;;;;5014633;28;45427;-79
2023/04/19 05:15:32;;;;;;;;;10.00;8.33;;;;;;;;5015954;28;45535;-79
2023/04/19 05:17:58;;;;;;;;;9.33;7.00;;;;;;;;5015741;28;46606;-79
2023/04/19 05:20:23;;;;;;;;;10.00;6.00;;;;;;;;5015203;28;45482;-78
2023/04/19 05:22:48;;;;;;;;;7.33;7.00;;;;;;;;5015498;28;45379;-79
2023/04/19 05:25:13;;;;;;;;;10.00;5.33;;;;;;;;5015311;28;45303;-78
2023/04/19 05:27:38;;;;;;;;;9.33;6.00;;;;;;;;5015681;28;45340;-79
2023/04/19 05:30:04;;;;;;;;;10.67;7.00;;;;;;;;5015548;28;45542;-78
2023/04/19 05:32:30;;;;;;;;;10.00;6.00;;;;;;;;5015865;28;45400;-79
2023/04/19 05:34:55;;;;;;;;;11.33;3.67;;;;;;;;5015528;28;45375;-78
2023/04/19 05:37:20;;;;;;;;;13.33;6.00;;;;;;;;5015337;28;46156;-79
2023/04/19 05:39:45;;;;;;;;;10.33;7.67;;;;;;;;5015288;28;45376;-79
2023/04/19 05:42:10;;;;;;;;;8.67;6.00;;;;;;;;5014167;28;45428;-79
2023/04/19 05:44:36;;;;;;;;;6.67;6.67;;;;;;;;5014180;28;45407;-79
2023/04/19 05:47:01;;;;;;;;;10.33;6.00;;;;;;;;5015367;28;45395;-79
2023/04/19 05:49:26;;;;;;;;;8.00;6.33;;;;;;;;5015404;28;45470;-79
2023/04/19 05:51:53;;;;;;;;;10.67;9.67;;;;;;;;5015570;28;45502;-79
2023/04/19 05:54:18;;;;;;;;;11.50;8.50;;;;;;;;5015300;28;45338;-78
2023/04/19 05:56:43;;;;;;;;;8.00;6.33;;;;;;;;5015126;28;45447;-79
2023/04/19 05:59:10;;;;;;;;;10.67;8.00;;;;;;;;5015605;28;45535;-79
2023/04/19 06:01:35;;;;;;;;;9.00;7.25;;;;;;;;5015316;28;45371;-79
2023/04/19 06:04:00;;;;;;;;;8.67;6.33;;;;;;;;5015471;28;45601;-79
2023/04/19 06:06:26;;;;;;;;;13.33;7.00;;;;;;;;5013506;28;45498;-78
2023/04/19 06:08:51;;;;;;;;;12.25;8.50;;;;;;;;5015009;28;45345;-78
2023/04/19 06:11:16;;;;;;;;;8.00;8.00;;;;;;;;5015106;28;45320;-79
2023/04/19 06:13:43;;;;;;;;;6.67;5.00;;;;;;;;5015227;28;45454;-79
2023/04/19 06:16:09;;;;;;;;;10.50;7.00;;;;;;;;5015002;28;46346;-79
2023/04/19 06:18:34;;;;;;;;;11.75;10.25;;;;;;;;5015221;28;45447;-78
2023/04/19 06:20:59;;;;;;;;;6.00;6.00;;;;;;;;5014993;28;45557;-79
2023/04/19 06:23:25;;;;;;;;;7.67;5.67;;;;;;;;5015014;28;45366;-79
2023/04/19 06:25:51;;;;;;;;;12.50;7.75;;;;;;;;5014977;28;46416;-78
2023/04/19 06:28:17;;;;;;;;;10.75;8.50;;;;;;;;5010439;28;45443;-78
2023/04/19 06:30:42;;;;;;;;;12.75;8.00;;;;;;;;5014844;28;45357;-77
2023/04/19 06:33:07;;;;;;;;;8.00;7.00;;;;;;;;5014955;28;45593;-79
2023/04/19 06:35:32;;;;;;;;;10.33;6.00;;;;;;;;5015144;28;46145;-77
2023/04/19 06:37:58;;;;;;;;;10.67;6.33;;;;;;;;4998682;28;45611;-76
2023/04/19 06:40:23;;;;;;;;;12.25;9.50;;;;;;;;5007810;28;45261;-77
2023/04/19 06:42:49;;;;;;;;;11.50;9.50;;;;;;;;4998337;28;45253;-77
2023/04/19 06:45:15;;;;;;;;;11.25;7.00;;;;;;;;5009439;28;47206;-78
2023/04/19 06:47:40;;;;;;;;;12.00;7.00;;;;;;;;5011352;28;45446;-77
2023/04/19 06:50:06;;;;;;;;;11.75;7.25;;;;;;;;5017851;28;45288;-77
2023/04/19 06:52:31;;;;;;;;;10.50;7.50;;;;;;;;5012642;28;45536;-77
2023/04/19 06:54:56;;;;;;;;;11.33;7.67;;;;;;;;5006509;28;48242;-77
2023/04/19 06:57:21;;;;;;;;;15.67;11.00;;;;;;;;5009264;28;45565;-77
2023/04/19 06:59:46;;;;;;;;;11.67;10.67;;;;;;;;4998349;28;45428;-77
2023/04/19 07:02:11;;;;;;;;;5.67;5.00;;;;;;;;5010521;28;45491;-78
2023/04/19 07:04:37;;;;;;;;;12.00;6.33;;;;;;;;5017254;28;46334;-77
2023/04/19 07:07:02;;;;;;;;;12.33;8.00;;;;;;;;5017344;28;45249;-78
2023/04/19 07:09:27;;;;;;;;;14.75;7.25;;;;;;;;5018666;28;45424;-78
2023/04/19 07:11:53;;;;;;;;;13.50;8.00;;;;;;;;5028611;28;45511;-79
2023/04/19 07:14:18;;;;;;;;;7.75;5.50;;;;;;;;5023169;28;46254;-78
2023/04/19 07:16:44;;;;;;;;;11.00;7.67;;;;;;;;5037378;28;45367;-78
2023/04/19 07:19:09;;;;;;;;;12.25;6.75;;;;;;;;5030844;28;45403;-78
2023/04/19 07:21:34;;;;;;;;;12.00;7.00;;;;;;;;5017456;28;45527;-79
2023/04/19 07:24:00;;;;;;;;;12.67;6.67;;;;;;;;5017434;28;45497;-79
2023/04/19 07:26:25;;;;;;;;;10.33;3.00;;;;;;;;5017376;28;45343;-78
2023/04/19 07:28:50;;;;;;;;;11.67;9.33;;;;;;;;5003210;28;45314;-78
2023/04/19 07:31:16;;;;;;;;;9.00;8.00;;;;;;;;4999555;28;45385;-78
2023/04/19 07:33:42;;;;;;;;;9.00;6.50;;;;;;;;5011309;28;47135;-78
2023/04/19 07:36:07;;;;;;;;;12.00;6.50;;;;;;;;5011729;28;45460;-77
2023/04/19 07:38:32;;;;;;;;;9.50;7.75;;;;;;;;5010112;28;45578;-76
2023/04/19 07:40:57;;;;;;;;;12.67;7.67;;;;;;;;5001289;28;45535;-76
2023/04/19 07:43:23;;;;;;;;;7.33;4.33;;;;;;;;5002625;28;47268;-78
2023/04/19 07:45:48;;;;;;;;;13.67;8.33;;;;;;;;5011066;28;45551;-77
2023/04/19 07:48:13;;;;;;;;;12.33;7.00;;;;;;;;5011452;28;45531;-77
2023/04/19 07:50:38;;;;;;;;;12.33;8.67;;;;;;;;4997431;28;45707;-78
2023/04/19 07:53:03;;;;;;;;;9.33;8.00;;;;;;;;5000707;28;45538;-77
2023/04/19 07:55:29;;;;;;;;;14.33;7.00;;;;;;;;5013206;28;45732;-77
2023/04/19 07:57:54;;;;;;;;;8.00;8.00;;;;;;;;5008427;28;45510;-78
2023/04/19 08:00:22;;;;;;;;;12.25;8.75;;;;;;;;5011640;28;45518;-79
2023/04/19 08:02:47;;;;;;;;;14.75;8.00;;;;;;;;5014596;28;46172;-80
2023/04/19 08:05:16;;;;;;;;;9.75;8.50;;;;;;;;5011221;28;45606;-80
2023/04/19 08:07:41;;;;;;;;;13.00;6.25;;;;;;;;5011249;28;45487;-78
2023/04/19 08:10:07;;;;;;;;;9.25;7.00;;;;;;;;5014554;28;45448;-78
2023/04/19 08:12:32;;;;;;;;;17.25;8.75;;;;;;;;5016370;28;45364;-78
2023/04/19 08:14:57;;;;;;;;;11.75;8.75;;;;;;;;5003953;28;45310;-78
2023/04/19 08:17:23;;;;;;;;;9.33;9.00;;;;;;;;4996350;28;45430;-81
2023/04/19 08:19:48;;;;;;;;;10.25;7.75;;;;;;;;5005286;28;45490;-79
2023/04/19 08:22:15;;;;;;;;;13.75;9.00;;;;;;;;5006434;28;46540;-79
2023/04/19 08:24:40;;;;;;;;;9.75;6.25;;;;;;;;4996660;28;45827;-80
2023/04/19 08:27:05;;;;;;;;;12.33;7.00;;;;;;;;5012490;28;45371;-80
2023/04/19 08:29:32;;;;;;;;;11.00;7.67;;;;;;;;5015067;28;45478;-80
2023/04/19 08:31:57;;;;;;;;;10.75;7.75;;;;;;;;5010167;28;45668;-79
2023/04/19 08:34:22;;;;;;;;;8.33;7.67;;;;;;;;5007959;28;45656;-79
2023/04/19 08:36:47;;;;;;;;;9.00;7.33;;;;;;;;5014940;28;45505;-79
2023/04/19 08:39:13;;;;;;;;;11.00;8.33;;;;;;;;5017100;28;45664;-79
2023/04/19 08:41:39;;;;;;;;;9.50;7.50;;;;;;;;5014142;28;45457;-79
2023/04/19 08:44:04;;;;;;;;;7.67;6.33;;;;;;;;5021178;28;45360;-79
2023/04/19 08:46:30;;;;;;;;;13.00;7.25;;;;;;;;5035228;28;45414;-79
2023/04/19 08:48:56;;;;;;;;;9.25;5.50;;;;;;;;5023765;28;45629;-78
2023/04/19 08:51:22;;;;;;;;;10.00;6.00;;;;;;;;5014253;28;47312;-80
2023/04/19 08:53:49;;;;;;;;;13.50;9.75;;;;;;;;5014377;28;45371;-79
2023/04/19 08:56:14;;;;;;;;;8.75;6.25;;;;;;;;5014198;28;45511;-79
2023/04/19 08:58:40;;;;;;;;;18.25;8.25;;;;;;;;5013215;28;45450;-79
2023/04/19 09:01:06;;;;;;;;;12.67;9.00;;;;;;;;5015126;28;46233;-79
2023/04/19 09:03:31;;;;;;;;;10.75;10.00;;;;;;;;5011757;28;45893;-79
2023/04/19 09:05:56;;;;;;;;;12.50;7.75;;;;;;;;5015332;28;45320;-79
2023/04/19 09:08:23;;;;;;;;;10.00;8.00;;;;;;;;5014971;28;45367;-77
2023/04/19 09:10:56;;;;;;;;;12.25;8.00;;;;;;;;5009807;28;46412;-79
2023/04/19 09:13:22;;;;;;;;;7.00;4.00;;;;;;;;5005373;28;45372;-77
2023/04/19 09:15:47;;;;;;;;;14.25;11.50;;;;;;;;5015155;28;45309;-78
2023/04/19 09:18:13;;;;;;;;;9.25;8.75;;;;;;;;5013694;28;45338;-78
2023/04/19 09:20:39;;;;;;;;;15.75;8.75;;;;;;;;5010024;28;46526;-78
2023/04/19 09:23:06;;;;;;;;;12.25;9.75;;;;;;;;5014394;28;45897;-77
2023/04/19 09:25:31;;;;;;;;;10.50;8.50;;;;;;;;5011335;28;45479;-77
2023/04/19 09:28:10;;;;;;;;;11.25;6.25;;;;;;;;5014243;28;45482;-78
2023/04/19 09:30:36;;;;;;;;;9.25;7.00;;;;;;;;5013682;28;45333;-78
2023/04/19 09:33:01;;;;;;;;;7.50;5.00;;;;;;;;5013584;28;45663;-78
2023/04/19 09:35:42;;;;;;;;;9.67;8.00;;;;;;;;5005588;28;45705;-77
2023/04/19 09:38:08;;;;;;;;;7.75;7.00;;;;;;;;5007512;28;45467;-76
2023/04/19 09:40:33;;;;;;;;;12.00;5.00;;;;;;;;5012150;28;45454;-78
2023/04/19 09:42:59;;;;;;;;;5.75;4.75;;;;;;;;5005051;28;45436;-78
2023/04/19 09:45:25;;;;;;;;;10.67;7.00;;;;;;;;5005882;28;45187;-77
2023/04/19 09:48:01;;;;;;;;;12.00;8.50;;;;;;;;5015938;28;45467;-77
2023/04/19 09:50:26;;;;;;;;;11.00;6.50;;;;;;;;5005938;28;46275;-77
2023/04/19 09:52:52;;;;;;;;;14.33;9.00;;;;;;;;5014665;28;45309;-78
2023/04/19 09:55:18;;;;;;;;;6.00;6.00;;;;;;;;5006043;28;45702;-78
2023/04/19 09:57:43;;;;;;;;;10.50;6.00;;;;;;;;5008876;28;45570;-78
2023/04/19 10:00:12;;;;;;;;;9.00;5.00;;;;;;;;5013028;28;45700;-78
2023/04/19 10:02:38;;;;;;;;;13.00;7.25;;;;;;;;5008819;28;45953;-78
2023/04/19 10:05:05;;;;;;;;;9.75;8.50;;;;;;;;5013900;28;45680;-78
2023/04/19 10:07:31;;;;;;;;;13.75;7.25;;;;;;;;5015334;28;45323;-76
2023/04/19 10:09:58;;;;;;;;;9.25;6.00;;;;;;;;5016049;28;45581;-77
2023/04/19 10:12:25;;;;;;;;;7.00;7.00;;;;;;;;5016465;28;45542;-76
2023/04/19 10:14:50;;;;;;;;;11.00;6.00;;;;;;;;5016417;28;45413;-78
2023/04/19 10:17:16;;;;;;;;;7.75;5.75;;;;;;;;5014156;28;45662;-79
2023/04/19 10:19:42;;;;;;;;;5.67;5.67;;;;;;;;5017595;28;46579;-77
2023/04/19 10:22:08;;;;;;;;;7.25;6.75;;;;;;;;5017893;28;45337;-78
2023/04/19 10:24:33;;;;;;;;;10.50;6.00;;;;;;;;5018085;28;45308;-78
2023/04/19 10:27:06;;;;;;;;;7.00;5.00;;;;;;;;5018404;28;45431;-78
2023/04/19 10:29:50;;;;;;;;;10.50;5.25;;;;;;;;5018597;28;46829;-79
2023/04/19 10:32:15;;;;;;;;;7.50;7.50;;;;;;;;5037857;28;45371;-78
2023/04/19 10:34:41;;;;;;;;;7.67;6.33;;;;;;;;5026048;28;45483;-78
2023/04/19 10:37:09;;;;;;;;;7.25;6.75;;;;;;;;5018094;28;45468;-79
2023/04/19 10:39:38;;;;;;;;;10.50;6.25;;;;;;;;5017270;28;45364;-78
2023/04/19 10:42:04;;;;;;;;;6.00;5.75;;;;;;;;5017741;28;45403;-78
2023/04/19 10:44:29;;;;;;;;;11.00;7.00;;;;;;;;5013340;28;45393;-79
2023/04/19 10:46:54;;;;;;;;;11.67;5.33;;;;;;;;5016693;28;45837;-78
2023/04/19 10:49:22;;;;;;;;;8.25;6.50;;;;;;;;5012374;28;46957;-78
2023/04/19 10:51:49;;;;;;;;;6.00;6.00;;;;;;;;5018281;28;45794;-80
2023/04/19 10:54:21;;;;;;;;;6.50;5.00;;;;;;;;5016258;28;45674;-80
2023/04/19 10:56:57;;;;;;;;;13.50;5.50;;;;;;;;5031985;28;45500;-80
2023/04/19 10:59:22;;;;;;;;;10.25;6.50;;;;;;;;5037742;28;46426;-82
2023/04/19 11:01:59;;;;;;;;;6.50;5.50;;;;;;;;5004166;28;45400;-80
2023/04/19 11:04:30;;;;;;;;;5.00;5.00;;;;;;;;5012556;28;45550;-81
2023/04/19 11:07:00;;;;;;;;;5.50;5.25;;;;;;;;5005850;28;45664;-80
2023/04/19 11:09:33;;;;;;;;;9.00;5.00;;;;;;;;5015867;28;45422;-80
2023/04/19 11:12:08;;;;;;;;;6.50;6.25;;;;;;;;5006856;28;45354;-81
2023/04/19 11:14:35;;;;;;;;;8.00;4.75;;;;;;;;5020871;28;45676;-81
2023/04/19 11:17:02;;;;;;;;;7.25;5.25;;;;;;;;5016159;28;45399;-80
2023/04/19 11:19:27;;;;;;;;;5.75;3.75;;;;;;;;5013318;28;45492;-81
2023/04/19 11:21:56;;;;;;;;;5.75;3.75;;;;;;;;5015237;28;45447;-79
2023/04/19 11:24:22;;;;;;;;;8.00;5.75;;;;;;;;5015730;28;45521;-77
2023/04/19 11:26:47;;;;;;;;;4.67;4.67;;;;;;;;5014380;28;45392;-79
2023/04/19 11:29:13;;;;;;;;;7.00;3.75;;;;;;;;5014553;28;45510;-80
2023/04/19 11:31:38;;;;;;;;;6.00;3.50;;;;;;;;5015302;28;45392;-81
2023/04/19 11:34:03;;;;;;;;;6.00;4.00;;;;;;;;5015976;28;45231;-80
2023/04/19 11:36:30;;;;;;;;;6.00;5.50;;;;;;;;5015418;28;45443;-81
2023/04/19 11:38:56;;;;;;;;;7.75;4.00;;;;;;;;5006779;28;45596;-79
2023/04/19 11:41:21;;;;;;;;;5.00;4.00;;;;;;;;5029019;28;45384;-81
2023/04/19 11:43:47;;;;;;;;;4.00;3.00;;;;;;;;5016789;28;45348;-79
2023/04/19 11:46:12;;;;;;;;;9.25;6.00;;;;;;;;5016081;28;45329;-79
2023/04/19 11:48:38;;;;;;;;;8.25;5.00;;;;;;;;5012747;28;46149;-80
2023/04/19 11:51:04;;;;;;;;;6.75;4.75;;;;;;;;5015166;28;45801;-80
2023/04/19 11:53:30;;;;;;;;;5.50;3.00;;;;;;;;5015857;28;45364;-78
2023/04/19 11:56:02;;;;;;;;;6.00;3.00;;;;;;;;5015425;28;45440;-79
2023/04/19 11:58:32;;;;;;;;;4.25;3.75;;;;;;;;5015174;28;46533;-77
2023/04/19 12:01:07;;;;;;;;;4.25;4.25;;;;;;;;5014641;28;45377;-78
2023/04/19 12:03:33;;;;;;;;;4.00;3.25;;;;;;;;5015976;28;45379;-79
2023/04/19 12:05:59;;;;;;;;;6.00;3.00;;;;;;;;5015838;28;45810;-80
2023/04/19 12:08:31;;;;;;;;;4.75;3.00;;;;;;;;5015916;28;45468;-78
2023/04/19 12:10:57;;;;;;;;;3.50;3.25;;;;;;;;5014379;28;45948;-79
2023/04/19 12:13:23;;;;;;;;;4.75;3.00;;;;;;;;5022780;28;45472;-81
2023/04/19 12:15:49;;;;;;;;;7.50;4.00;;;;;;;;5014267;28;45481;-81
2023/04/19 12:18:14;;;;;;;;;6.67;4.33;;;;;;;;5011562;28;46341;-80
2023/04/19 12:20:44;;;;;;;;;7.75;4.00;;;;;;;;5011295;28;45443;-81
2023/04/19 12:23:12;;;;;;;;;3.00;2.00;;;;;;;;5014971;28;45452;-80
2023/04/19 12:25:38;;;;;;;;;4.75;2.50;;;;;;;;5018227;28;45554;-80
2023/04/19 12:28:03;;;;;;;;;3.25;2.00;;;;;;;;5021126;28;45363;-81
2023/04/19 12:30:28;;;;;;;;;9.33;4.33;;;;;;;;5016223;28;45372;-81
2023/04/19 12:32:54;;;;;;;;;4.00;3.00;;;;;;;;5013072;28;45395;-81
2023/04/19 12:35:21;;;;;;;;;4.00;2.00;;;;;;;;5014834;28;45568;-80
2023/04/19 12:37:46;;;;;;;;;5.25;2.50;;;;;;;;5015654;28;45435;-80
2023/04/19 12:40:12;;;;;;;;;4.33;3.00;;;;;;;;5013724;28;45752;-80
2023/04/19 12:42:37;;;;;;;;;4.50;2.00;;;;;;;;5004947;28;45491;-80
2023/04/19 12:45:02;;;;;;;;;4.00;3.00;;;;;;;;5012409;28;45452;-81
2023/04/19 12:47:27;;;;;;;;;3.00;3.00;;;;;;;;5015230;28;45451;-81
2023/04/19 12:49:54;;;;;;;;;2.33;2.00;;;;;;;;5012963;28;45542;-80
2023/04/19 12:52:20;;;;;;;;;6.75;3.00;;;;;;;;5014746;28;45514;-80
2023/04/19 12:54:45;;;;;;;;;9.00;3.50;;;;;;;;5011437;28;45414;-81
2023/04/19 12:57:10;;;;;;;;;4.00;1.00;;;;;;;;5014486;28;45502;-79
2023/04/19 12:59:36;;;;;;;;;3.33;0.00;;;;;;;;5013704;28;45506;-79
2023/04/19 13:02:01;;;;;;;;;2.67;2.00;;;;;;;;5015391;28;45478;-80
2023/04/19 13:04:26;;;;;;;;;3.00;1.00;;;;;;;;5014364;28;45510;-80
2023/04/19 13:06:51;;;;;;;;;1.33;1.00;;;;;;;;5007852;28;47201;-81
2023/04/19 13:09:17;;;;;;;;;2.33;1.00;;;;;;;;5003009;28;45530;-81
2023/04/19 13:11:42;;;;;;;;;3.50;2.25;;;;;;;;5006080;28;45438;-80
2023/04/19 13:14:07;;;;;;;;;0.00;0.00;;;;;;;;5028105;28;45448;-80
2023/04/19 13:16:32;;;;;;;;;1.00;1.00;;;;;;;;5015329;28;46452;-80
2023/04/19 13:18:57;;;;;;;;;2.33;1.00;;;;;;;;5014221;28;45887;-80
2023/04/19 13:21:23;;;;;;;;;2.00;1.33;;;;;;;;5015252;28;45431;-81
2023/04/19 13:23:48;;;;;;;;;4.00;1.33;;;;;;;;5009514;28;45569;-80
2023/04/19 13:26:14;;;;;;;;;1.75;1.00;;;;;;;;5003029;28;46034;-80
2023/04/19 13:28:40;;;;;;;;;2.75;1.00;;;;;;;;5005424;28;45794;-81
2023/04/19 13:31:06;;;;;;;;;1.00;1.00;;;;;;;;5004456;28;45271;-81
2023/04/19 13:33:31;;;;;;;;;2.00;2.00;;;;;;;;5004769;28;45642;-80
2023/04/19 13:35:56;;;;;;;;;0.00;0.00;;;;;;;;5018121;28;46282;-80
2023/04/19 13:38:21;;;;;;;;;0.00;0.00;;;;;;;;5024803;28;45340;-80
2023/04/19 13:40:47;;;;;;;;;4.00;2.50;;;;;;;;5029685;28;45335;-80
2023/04/19 13:43:12;;;;;;;;;3.00;0.67;;;;;;;;5014799;28;45391;-80
2023/04/19 13:45:37;;;;;;;;;3.67;1.00;;;;;;;;5015009;28;45472;-81
2023/04/19 13:48:02;;;;;;;;;2.00;1.00;;;;;;;;5012244;28;45527;-80
2023/04/19 13:50:28;;;;;;;;;0.00;0.00;;;;;;;;5023858;28;45306;-80
2023/04/19 13:52:53;;;;;;;;;1.25;0.75;;;;;;;;5016516;28;45497;-80
2023/04/19 13:55:18;;;;;;;;;2.33;0.67;;;;;;;;5011025;28;46424;-79
2023/04/19 13:57:43;;;;;;;;;0.00;0.00;;;;;;;;5012507;28;45520;-81
2023/04/19 14:00:09;;;;;;;;;1.33;0.33;;;;;;;;5014737;28;45562;-80
2023/04/19 14:02:34;;;;;;;;;0.75;0.75;;;;;;;;5013757;28;45589;-79
2023/04/19 14:04:59;;;;;;;;;0.00;0.00;;;;;;;;5006705;28;46235;-80
2023/04/19 14:07:24;;;;;;;;;0.25;0.25;;;;;;;;5010869;28;45463;-80
2023/04/19 14:09:50;;;;;;;;;0.00;0.00;;;;;;;;5010781;28;45418;-80
2023/04/19 14:12:15;;;;;;;;;1.00;0.50;;;;;;;;5014772;28;45506;-81
2023/04/19 14:14:41;;;;;;;;;2.33;1.00;;;;;;;;5011949;28;47202;-80
2023/04/19 14:17:06;;;;;;;;;1.00;0.00;;;;;;;;5014190;28;45327;-80
2023/04/19 14:19:31;;;;;;;;;2.25;1.00;;;;;;;;5016741;28;45450;-80
2023/04/19 14:21:56;;;;;;;;;0.00;0.00;;;;;;;;5006623;28;45309;-79
2023/04/19 14:24:22;;;;;;;;;0.00;0.00;;;;;;;;5012546;28;45533;-79
2023/04/19 14:26:47;;;;;;;;;2.00;1.00;;;;;;;;5007872;28;45562;-79
2023/04/19 14:29:12;;;;;;;;;2.67;1.00;;;;;;;;5005897;28;45501;-79